Foxfire Village, North Carolina
Current Conditions -  °F | °C
As of 11:55 AM on Thursday 23 Oct 2014 (Local Time) from KSOP Reporting Station
Clear Clear  
Wind Chill: 61°   Ceiling: Unl
Heat Index: 61°   Visibility: 10mi
Dew Point: 39°   Wind: 10mph
Humidity: 45%   Direction: 310°NW
Pressure: 30.04"   Gusts: NA
Location:  35.2008°N, 79.6471°W
Report Text: KSOP 231555Z AUTO 31009KT 10SM CLR 16/04 A3004 RMK AO1
Loading
Personal Weather Stations






























Interactive Weather Map
Tropical Storm Tracking
New forecast layout! Learn more

10-Day Weather Forecast

Advertisements
Track Severe Weather on mobile